createdAt,value
2017-11-15T00:02:00.604Z,2.70
2017-11-15T00:04:29.532Z,2.70
2017-11-15T00:06:57.679Z,2.70
2017-11-15T00:09:26.678Z,2.80
2017-11-15T00:11:54.811Z,2.70
2017-11-15T00:14:22.950Z,2.70
2017-11-15T00:16:51.277Z,2.80
2017-11-15T00:19:19.417Z,2.80
2017-11-15T00:21:47.670Z,2.70
2017-11-15T00:24:15.802Z,2.70
2017-11-15T00:26:44.047Z,2.70
2017-11-15T00:29:12.174Z,2.70
2017-11-15T00:31:40.341Z,2.70
2017-11-15T00:34:08.478Z,2.70
2017-11-15T00:36:36.613Z,2.70
2017-11-15T00:39:04.769Z,2.60
2017-11-15T00:41:32.921Z,2.70
2017-11-15T00:44:01.276Z,2.70
2017-11-15T00:46:29.436Z,2.70
2017-11-15T00:48:57.596Z,2.70
2017-11-15T00:51:25.724Z,2.60
2017-11-15T00:53:54.651Z,2.60
2017-11-15T00:56:22.782Z,2.60
2017-11-15T00:58:51.718Z,2.60
2017-11-15T01:01:20.715Z,2.60
2017-11-15T01:03:48.865Z,2.70
2017-11-15T01:06:17.045Z,2.60
2017-11-15T01:08:45.188Z,2.60
2017-11-15T01:11:16.517Z,2.50
2017-11-15T01:13:46.427Z,2.50
2017-11-15T01:16:15.686Z,2.50
2017-11-15T01:18:43.813Z,2.50
2017-11-15T01:21:11.981Z,2.50
2017-11-15T01:23:40.123Z,2.40
2017-11-15T01:26:08.254Z,2.30
2017-11-15T01:28:37.200Z,2.30
2017-11-15T01:31:05.339Z,2.30
2017-11-15T01:33:33.654Z,2.30
2017-11-15T01:36:01.787Z,2.40
2017-11-15T01:38:29.966Z,2.30
2017-11-15T01:40:58.118Z,2.40
2017-11-15T01:46:00.579Z,2.30
2017-11-15T01:48:32.461Z,2.30
2017-11-15T01:51:04.043Z,2.20
2017-11-15T01:53:32.197Z,1.90
2017-11-15T01:56:01.217Z,1.90
2017-11-15T01:58:30.797Z,1.90
2017-11-15T02:01:00.385Z,1.90
2017-11-15T02:03:29.098Z,1.90
2017-11-15T02:05:59.684Z,2.00
2017-11-15T02:08:29.252Z,1.90
2017-11-15T02:10:57.477Z,1.90
2017-11-15T02:13:25.621Z,1.80
2017-11-15T02:15:53.758Z,1.90
2017-11-15T02:18:21.899Z,1.80
2017-11-15T02:20:50.806Z,1.70
2017-11-15T02:23:19.734Z,1.70
2017-11-15T02:25:47.874Z,1.70
2017-11-15T02:28:16.828Z,1.70
2017-11-15T02:30:44.971Z,1.70
2017-11-15T02:33:13.112Z,1.80
2017-11-15T02:35:41.431Z,1.90
2017-11-15T02:38:09.566Z,1.80
2017-11-15T02:40:37.744Z,1.80
2017-11-15T02:43:05.877Z,1.90
2017-11-15T02:45:34.009Z,1.90
2017-11-15T02:48:02.179Z,1.90
2017-11-15T02:50:30.321Z,1.90
2017-11-15T02:52:59.419Z,1.80
2017-11-15T02:55:28.345Z,1.80
2017-11-15T02:57:56.518Z,1.80
2017-11-15T03:00:24.642Z,1.80
2017-11-15T03:02:53.541Z,2.00
2017-11-15T03:05:22.479Z,2.10
2017-11-15T03:07:50.614Z,2.10
2017-11-15T03:10:19.769Z,2.20
2017-11-15T03:12:47.909Z,2.20
2017-11-15T03:15:16.034Z,2.20
2017-11-15T03:17:44.362Z,2.20
2017-11-15T03:20:12.503Z,2.10
2017-11-15T03:22:41.420Z,1.90
2017-11-15T03:25:09.560Z,1.90
2017-11-15T03:27:38.593Z,1.70
2017-11-15T03:30:07.498Z,1.80
2017-11-15T03:32:35.810Z,1.70
2017-11-15T03:35:03.953Z,1.80
2017-11-15T03:37:32.125Z,1.70
2017-11-15T03:40:00.269Z,1.80
2017-11-15T03:42:28.436Z,1.80
2017-11-15T03:44:56.573Z,1.90
2017-11-15T03:47:24.838Z,2.00
2017-11-15T03:49:52.979Z,2.00
2017-11-15T03:52:21.139Z,2.00
2017-11-15T03:54:49.309Z,2.10
2017-11-15T03:57:17.455Z,2.10
2017-11-15T03:59:45.615Z,2.10
2017-11-15T04:02:13.749Z,2.20
2017-11-15T04:04:42.049Z,2.20
2017-11-15T04:07:10.192Z,2.10
2017-11-15T04:09:38.337Z,2.00
2017-11-15T04:12:06.505Z,1.90
2017-11-15T04:14:35.394Z,1.80
2017-11-15T04:17:04.321Z,1.90
2017-11-15T04:19:32.459Z,1.80
2017-11-15T04:22:01.493Z,2.00
2017-11-15T04:24:29.624Z,2.00
2017-11-15T04:26:58.531Z,1.90
2017-11-15T04:29:26.694Z,1.90
2017-11-15T04:31:55.598Z,1.80
2017-11-15T04:34:23.749Z,1.80
2017-11-15T04:36:52.647Z,1.80
2017-11-15T04:39:21.750Z,1.80
2017-11-15T04:41:49.881Z,1.80
2017-11-15T04:44:18.024Z,1.80
2017-11-15T04:46:46.183Z,1.80
2017-11-15T04:49:14.306Z,1.80
2017-11-15T04:51:42.488Z,1.70
2017-11-15T04:54:10.618Z,1.60
2017-11-15T04:56:38.963Z,1.70
2017-11-15T04:59:07.889Z,1.60
2017-11-15T05:01:36.020Z,1.60
2017-11-15T05:04:04.958Z,1.70
2017-11-15T05:06:33.101Z,1.70
2017-11-15T05:09:01.285Z,1.70
2017-11-15T05:11:29.500Z,1.70
2017-11-15T05:13:57.638Z,1.70
2017-11-15T05:16:25.826Z,1.70
2017-11-15T05:18:53.974Z,1.60
2017-11-15T05:21:22.162Z,1.70
2017-11-15T05:23:50.591Z,1.80
2017-11-15T05:26:18.741Z,1.70
2017-11-15T05:28:46.910Z,1.70
2017-11-15T05:31:15.044Z,1.70
2017-11-15T05:33:43.321Z,1.70
2017-11-15T05:36:11.453Z,1.70
2017-11-15T05:38:39.610Z,1.70
2017-11-15T05:41:07.771Z,1.80
2017-11-15T05:43:35.907Z,1.80
2017-11-15T05:46:04.065Z,1.80
2017-11-15T05:48:33.137Z,1.80
2017-11-15T05:51:01.301Z,1.80
2017-11-15T05:53:29.480Z,1.70
2017-11-15T05:55:57.620Z,1.70
2017-11-15T05:58:25.798Z,1.60
2017-11-15T06:00:53.938Z,1.60
2017-11-15T06:03:22.097Z,1.60
2017-11-15T06:05:50.229Z,1.60
2017-11-15T06:08:18.517Z,1.60
2017-11-15T06:10:46.793Z,1.50
2017-11-15T06:13:14.930Z,1.40
2017-11-15T06:15:43.018Z,1.40
2017-11-15T06:18:11.174Z,1.30
2017-11-15T06:20:40.397Z,1.30
2017-11-15T06:23:08.627Z,1.30
2017-11-15T06:25:36.820Z,1.20
2017-11-15T06:28:04.889Z,1.20
2017-11-15T06:30:33.858Z,1.00
2017-11-15T06:33:01.961Z,1.00
2017-11-15T06:35:30.124Z,0.90
2017-11-15T06:37:58.368Z,0.90
2017-11-15T06:40:27.275Z,0.80
2017-11-15T06:42:56.179Z,0.70
2017-11-15T06:45:24.337Z,0.70
2017-11-15T06:47:52.486Z,0.60
2017-11-15T06:50:20.808Z,0.60
2017-11-15T06:52:48.953Z,0.60
2017-11-15T06:55:17.877Z,0.80
2017-11-15T06:57:46.014Z,0.80
2017-11-15T07:00:14.951Z,1.00
2017-11-15T07:02:43.086Z,0.90
2017-11-15T07:05:12.022Z,1.10
2017-11-15T07:07:40.273Z,1.10
2017-11-15T07:10:08.427Z,1.20
2017-11-15T07:12:37.349Z,1.30
2017-11-15T07:15:05.484Z,1.20
2017-11-15T07:17:34.421Z,1.40
2017-11-15T07:20:02.561Z,1.40
2017-11-15T07:22:30.691Z,1.30
2017-11-15T07:24:58.898Z,1.40
2017-11-15T07:27:27.807Z,1.50
2017-11-15T07:29:55.948Z,1.50
2017-11-15T07:32:24.099Z,1.50
2017-11-15T07:34:52.243Z,1.50
2017-11-15T07:37:20.404Z,1.50
2017-11-15T07:39:48.552Z,1.50
2017-11-15T07:42:16.834Z,1.50
2017-11-15T07:44:44.989Z,1.60
2017-11-15T07:47:13.121Z,1.70
2017-11-15T07:49:41.287Z,1.70
2017-11-15T07:52:09.413Z,1.70
2017-11-15T07:54:37.569Z,1.70
2017-11-15T07:57:05.710Z,1.80
2017-11-15T07:59:33.985Z,1.80
2017-11-15T08:02:02.151Z,1.70
2017-11-15T08:04:30.292Z,1.80
2017-11-15T08:06:59.207Z,1.80
2017-11-15T08:09:27.374Z,1.70
2017-11-15T08:11:55.502Z,1.70
2017-11-15T08:14:23.685Z,1.70
2017-11-15T08:16:51.817Z,1.70
2017-11-15T08:19:19.956Z,1.70
2017-11-15T08:21:48.990Z,1.80
2017-11-15T08:24:17.136Z,1.80
2017-11-15T08:26:45.314Z,1.80
2017-11-15T08:29:13.448Z,1.80
2017-11-15T08:31:41.587Z,1.80
2017-11-15T08:34:09.875Z,1.80
2017-11-15T08:36:38.018Z,1.80
2017-11-15T08:39:06.178Z,1.90
2017-11-15T08:41:34.315Z,1.90
2017-11-15T08:44:02.510Z,1.90
2017-11-15T08:46:31.406Z,1.90
2017-11-15T08:49:00.459Z,1.90
2017-11-15T08:51:28.603Z,1.90
2017-11-15T08:53:56.767Z,1.80
2017-11-15T08:56:24.912Z,1.90
2017-11-15T08:58:53.075Z,1.90
2017-11-15T09:01:21.234Z,2.00
2017-11-15T09:03:49.523Z,2.00
2017-11-15T09:06:17.653Z,2.10
2017-11-15T09:08:45.801Z,2.10
2017-11-15T09:11:14.013Z,2.20
2017-11-15T09:13:42.147Z,2.20
2017-11-15T09:16:10.297Z,2.20
2017-11-15T09:18:38.594Z,2.30
2017-11-15T09:21:06.725Z,2.20
2017-11-15T09:23:34.945Z,2.30
2017-11-15T09:26:03.082Z,2.30
2017-11-15T09:28:31.223Z,2.30
2017-11-15T09:30:59.381Z,2.30
2017-11-15T09:33:27.554Z,2.40
2017-11-15T09:35:55.719Z,2.50
2017-11-15T09:38:23.897Z,2.50
2017-11-15T09:40:52.038Z,2.60
2017-11-15T09:43:20.939Z,2.60
2017-11-15T09:45:49.214Z,2.60
2017-11-15T09:48:17.354Z,2.70
2017-11-15T09:50:45.505Z,2.70
2017-11-15T09:53:13.647Z,2.70
2017-11-15T09:55:41.930Z,2.70
2017-11-15T09:58:10.067Z,2.70
2017-11-15T10:00:38.972Z,2.90
2017-11-15T10:03:07.910Z,2.90
2017-11-15T10:05:36.050Z,2.90
2017-11-15T10:08:04.186Z,3.00
2017-11-15T10:10:32.379Z,3.10
2017-11-15T10:13:00.477Z,3.20
2017-11-15T10:15:28.763Z,3.20
2017-11-15T10:17:56.917Z,3.30
2017-11-15T10:20:25.076Z,3.50
2017-11-15T10:22:54.005Z,3.50
2017-11-15T10:25:22.154Z,3.40
2017-11-15T10:27:50.289Z,3.60
2017-11-15T10:30:18.582Z,3.70
2017-11-15T10:32:47.610Z,3.80
2017-11-15T10:35:15.757Z,3.80
2017-11-15T10:37:43.933Z,3.90
2017-11-15T10:40:12.138Z,4.00
2017-11-15T10:42:40.230Z,4.00
2017-11-15T10:45:08.402Z,4.10
2017-11-15T10:47:36.541Z,4.30
2017-11-15T10:50:04.862Z,4.50
2017-11-15T10:52:32.997Z,4.70
2017-11-15T10:55:01.141Z,4.80
2017-11-15T10:57:30.083Z,4.80
2017-11-15T10:59:58.225Z,4.80
2017-11-15T11:02:26.378Z,4.90
2017-11-15T11:04:55.277Z,5.20
2017-11-15T11:07:23.418Z,5.20
2017-11-15T11:09:51.624Z,5.20
2017-11-15T11:12:19.774Z,5.30
2017-11-15T11:14:47.946Z,5.40
2017-11-15T11:17:16.101Z,5.40
2017-11-15T11:19:44.273Z,5.40
2017-11-15T11:22:12.449Z,5.50
2017-11-15T11:24:40.607Z,5.60
2017-11-15T11:27:08.748Z,5.70
2017-11-15T11:29:37.026Z,5.50
2017-11-15T11:32:05.193Z,5.50
2017-11-15T11:34:33.329Z,5.50
2017-11-15T11:37:01.497Z,5.60
2017-11-15T11:39:29.637Z,5.80
2017-11-15T11:41:57.774Z,5.80
2017-11-15T11:44:26.829Z,5.90
2017-11-15T11:46:54.999Z,5.90
2017-11-15T11:49:23.134Z,6.00
2017-11-15T11:51:51.299Z,5.90
2017-11-15T11:54:19.441Z,6.00
2017-11-15T11:56:47.589Z,6.20
2017-11-15T11:59:15.761Z,6.30
2017-11-15T12:01:44.074Z,6.30
2017-11-15T12:04:12.198Z,6.40
2017-11-15T12:06:40.340Z,6.40
2017-11-15T12:09:08.517Z,6.50
2017-11-15T12:11:37.577Z,6.60
2017-11-15T12:14:06.469Z,6.70
2017-11-15T12:16:35.241Z,6.70
2017-11-15T12:19:04.027Z,6.80
2017-11-15T12:24:10.938Z,6.90
2017-11-15T12:26:45.816Z,6.90
2017-11-15T12:29:13.969Z,7.00
2017-11-15T12:31:47.829Z,6.90
2017-11-15T12:34:15.995Z,7.00
2017-11-15T12:36:57.545Z,7.00
2017-11-15T12:39:30.049Z,7.30
2017-11-15T12:42:06.397Z,7.30
2017-11-15T12:44:44.234Z,7.40
2017-11-15T12:47:19.850Z,7.50
2017-11-15T12:49:55.630Z,7.60
2017-11-15T12:52:31.136Z,7.60
2017-11-15T12:55:06.938Z,7.60
2017-11-15T12:57:43.039Z,7.70
2017-11-15T13:00:18.583Z,7.80
2017-11-15T13:02:53.903Z,8.00
2017-11-15T13:05:29.627Z,8.10
2017-11-15T13:08:05.377Z,8.10
2017-11-15T13:10:56.229Z,8.10
2017-11-15T13:13:47.919Z,8.10
2017-11-15T13:16:39.094Z,8.10
2017-11-15T13:19:29.544Z,8.00
2017-11-15T13:21:57.774Z,8.10
2017-11-15T13:24:25.922Z,8.20
2017-11-15T13:26:54.070Z,8.40
2017-11-15T13:29:22.993Z,8.50
2017-11-15T13:31:51.178Z,8.50
2017-11-15T13:34:19.322Z,8.50
2017-11-15T13:36:48.245Z,8.60
2017-11-15T13:39:16.423Z,8.50
2017-11-15T13:41:44.550Z,8.60
2017-11-15T13:44:13.487Z,8.70
2017-11-15T13:46:41.629Z,8.60
2017-11-15T13:49:09.765Z,8.50
2017-11-15T13:51:38.038Z,8.40
2017-11-15T13:54:06.182Z,8.20
2017-11-15T13:56:34.354Z,8.10
2017-11-15T13:59:03.253Z,8.00
2017-11-15T14:01:31.426Z,8.00
2017-11-15T14:03:59.572Z,7.90
2017-11-15T14:06:27.711Z,7.90
2017-11-15T14:08:55.983Z,7.80
2017-11-15T14:11:24.149Z,7.80
2017-11-15T14:13:52.314Z,7.80
2017-11-15T14:16:20.488Z,7.80
2017-11-15T14:18:48.616Z,7.80
2017-11-15T14:21:16.798Z,7.70
2017-11-15T14:23:44.920Z,7.70
2017-11-15T14:26:13.199Z,7.70
2017-11-15T14:28:41.354Z,7.50
2017-11-15T14:31:09.519Z,7.50
2017-11-15T14:33:37.659Z,7.50
2017-11-15T14:36:05.789Z,7.40
2017-11-15T14:38:33.962Z,7.40
2017-11-15T14:41:02.099Z,7.30
2017-11-15T14:43:30.306Z,7.30
2017-11-15T14:45:58.450Z,7.30
2017-11-15T14:48:26.609Z,7.40
2017-11-15T14:50:54.782Z,7.40
2017-11-15T14:53:22.909Z,7.50
2017-11-15T14:55:51.077Z,7.50
2017-11-15T14:58:19.210Z,7.50
2017-11-15T15:00:48.547Z,7.50
2017-11-15T15:03:24.566Z,7.50
2017-11-15T15:05:54.162Z,7.40
2017-11-15T15:08:25.741Z,7.50
2017-11-15T15:11:00.354Z,7.50
2017-11-15T15:13:30.525Z,7.50
2017-11-15T15:15:59.686Z,7.50
2017-11-15T15:21:10.794Z,7.40
2017-11-15T15:23:38.987Z,7.40
2017-11-15T15:26:07.123Z,7.30
2017-11-15T15:28:35.296Z,7.20
2017-11-15T15:31:03.524Z,7.20
2017-11-15T15:33:33.983Z,7.10
2017-11-15T15:36:02.523Z,7.00
2017-11-15T15:38:30.662Z,6.90
2017-11-15T15:40:58.792Z,6.90
2017-11-15T15:43:26.946Z,6.90
2017-11-15T15:45:55.854Z,6.80
2017-11-15T15:48:24.013Z,6.70
2017-11-15T15:50:52.999Z,6.70
2017-11-15T15:53:22.090Z,6.60
2017-11-15T15:55:50.215Z,6.60
2017-11-15T15:58:18.358Z,6.40
2017-11-15T16:00:46.549Z,6.30
2017-11-15T16:03:14.689Z,6.20
2017-11-15T16:05:43.634Z,5.90
2017-11-15T16:08:11.801Z,5.90
2017-11-15T16:10:39.984Z,5.70
2017-11-15T16:13:08.161Z,5.50
2017-11-15T16:15:36.286Z,5.50
2017-11-15T16:18:04.461Z,5.40
2017-11-15T16:20:32.634Z,5.30
2017-11-15T16:23:00.781Z,5.20
2017-11-15T16:25:28.963Z,5.20
2017-11-15T16:27:57.106Z,5.10
2017-11-15T16:30:25.250Z,5.10
2017-11-15T16:32:54.570Z,5.00
2017-11-15T16:35:22.754Z,4.90
2017-11-15T16:37:50.906Z,4.90
2017-11-15T16:40:19.060Z,4.90
2017-11-15T16:42:47.227Z,4.90
2017-11-15T16:45:15.376Z,4.90
2017-11-15T16:47:43.513Z,4.90
2017-11-15T16:50:11.682Z,4.90
2017-11-15T16:52:39.817Z,4.90
2017-11-15T16:55:07.981Z,4.90
2017-11-15T16:57:36.898Z,4.90
2017-11-15T17:00:05.095Z,4.90
2017-11-15T17:02:33.254Z,4.80
2017-11-15T17:05:01.568Z,4.80
2017-11-15T17:07:30.635Z,4.80
2017-11-15T17:09:58.791Z,4.80
2017-11-15T17:12:26.970Z,4.80
2017-11-15T17:14:55.118Z,4.90
2017-11-15T17:17:24.010Z,5.00
2017-11-15T17:19:52.195Z,5.00
2017-11-15T17:22:20.474Z,5.10
2017-11-15T17:24:48.623Z,5.10
2017-11-15T17:27:17.529Z,5.20
2017-11-15T17:29:45.700Z,5.20
2017-11-15T17:32:13.833Z,5.20
2017-11-15T17:34:41.966Z,5.20
2017-11-15T17:37:10.137Z,5.20
2017-11-15T17:39:38.280Z,5.20
2017-11-15T17:42:07.364Z,5.10
2017-11-15T17:44:35.492Z,5.10
2017-11-15T17:47:03.636Z,5.10
2017-11-15T17:49:32.579Z,5.10
2017-11-15T17:52:00.721Z,5.10
2017-11-15T17:54:28.896Z,5.10
2017-11-15T17:56:57.063Z,5.10
2017-11-15T17:59:25.195Z,5.00
2017-11-15T18:01:53.525Z,5.00
2017-11-15T18:04:21.676Z,5.00
2017-11-15T18:06:49.833Z,5.00
2017-11-15T18:09:18.775Z,4.90
2017-11-15T18:11:46.958Z,4.90
2017-11-15T18:14:15.106Z,4.90
2017-11-15T18:16:43.266Z,4.80
2017-11-15T18:19:11.443Z,4.80
2017-11-15T18:21:39.578Z,4.80
2017-11-15T18:24:07.778Z,4.80
2017-11-15T18:26:36.705Z,4.80
2017-11-15T18:29:04.864Z,4.80
2017-11-15T18:31:34.459Z,4.80
2017-11-15T18:34:02.894Z,4.80
2017-11-15T18:36:32.109Z,4.70
2017-11-15T18:39:00.698Z,4.70
2017-11-15T18:41:29.172Z,4.70
2017-11-15T18:43:57.643Z,4.60
2017-11-15T18:46:26.086Z,4.60
2017-11-15T18:48:54.544Z,4.60
2017-11-15T18:51:23.036Z,4.60
2017-11-15T18:53:51.505Z,4.60
2017-11-15T18:56:19.976Z,4.60
2017-11-15T18:58:49.207Z,4.50
2017-11-15T19:01:17.642Z,4.50
2017-11-15T19:03:46.098Z,4.40
2017-11-15T19:06:15.371Z,4.40
2017-11-15T19:08:43.867Z,4.40
2017-11-15T19:11:12.382Z,4.30
2017-11-15T19:13:40.829Z,4.30
2017-11-15T19:16:10.075Z,4.30
2017-11-15T19:18:39.400Z,4.30
2017-11-15T19:21:07.898Z,4.30
2017-11-15T19:23:36.405Z,4.30
2017-11-15T19:26:05.657Z,4.20
2017-11-15T19:28:34.121Z,4.20
2017-11-15T19:31:02.558Z,4.20
2017-11-15T19:33:31.786Z,4.20
2017-11-15T19:36:00.250Z,4.20
2017-11-15T19:38:28.735Z,4.20
2017-11-15T19:40:57.179Z,4.10
2017-11-15T19:43:25.690Z,4.00
2017-11-15T19:45:54.146Z,4.00
2017-11-15T19:48:22.634Z,4.00
2017-11-15T19:50:51.134Z,4.00
2017-11-15T19:53:20.409Z,4.00
2017-11-15T19:55:48.854Z,4.00
2017-11-15T19:58:17.291Z,3.90
2017-11-15T20:00:45.809Z,3.90
2017-11-15T20:03:14.274Z,3.90
2017-11-15T20:05:43.656Z,3.90
2017-11-15T20:08:12.140Z,3.90
2017-11-15T20:10:40.650Z,3.80
2017-11-15T20:13:09.122Z,3.80
2017-11-15T20:15:37.607Z,3.80
2017-11-15T20:18:06.054Z,3.80
2017-11-15T20:20:35.448Z,3.80
2017-11-15T20:23:04.689Z,3.80
2017-11-15T20:25:33.139Z,3.70
2017-11-15T20:28:02.314Z,3.70
2017-11-15T20:30:30.712Z,3.70
2017-11-15T20:32:59.885Z,3.60
2017-11-15T20:35:28.180Z,3.50
2017-11-15T20:37:56.506Z,3.50
2017-11-15T20:40:24.656Z,3.40
2017-11-15T20:42:52.810Z,3.30
2017-11-15T20:45:21.007Z,3.30
2017-11-15T20:47:49.940Z,3.30
2017-11-15T20:50:18.091Z,3.30
2017-11-15T20:52:46.293Z,3.30
2017-11-15T20:55:14.432Z,3.30
2017-11-15T20:57:42.592Z,3.30
2017-11-15T21:00:13.867Z,3.20
2017-11-15T21:02:42.016Z,3.20
2017-11-15T21:05:10.919Z,3.10
2017-11-15T21:07:39.090Z,3.10
2017-11-15T21:10:08.006Z,2.90
2017-11-15T21:12:36.170Z,2.90
2017-11-15T21:15:04.331Z,2.90
2017-11-15T21:17:32.611Z,2.90
2017-11-15T21:20:00.760Z,2.90
2017-11-15T21:22:28.947Z,2.90
2017-11-15T21:24:57.920Z,2.90
2017-11-15T21:27:26.111Z,2.90
2017-11-15T21:29:55.027Z,2.90
2017-11-15T21:32:23.166Z,2.90
2017-11-15T21:34:52.238Z,2.90
2017-11-15T21:37:20.370Z,2.90
2017-11-15T21:39:48.577Z,2.90
2017-11-15T21:42:16.717Z,2.80
2017-11-15T21:44:44.869Z,2.80
2017-11-15T21:47:13.039Z,2.80
2017-11-15T21:49:41.170Z,2.80
2017-11-15T21:52:09.319Z,2.70
2017-11-15T21:54:37.605Z,2.70
2017-11-15T21:57:05.755Z,2.60
2017-11-15T21:59:33.894Z,2.60
2017-11-15T22:02:02.845Z,2.50
2017-11-15T22:04:31.006Z,2.50
2017-11-15T22:06:59.303Z,2.50
2017-11-15T22:09:27.472Z,2.50
2017-11-15T22:11:55.604Z,2.40
2017-11-15T22:14:23.793Z,2.40
2017-11-15T22:16:51.942Z,2.50
2017-11-15T22:19:20.117Z,2.40
2017-11-15T22:21:48.267Z,2.40
2017-11-15T22:24:16.430Z,2.40
2017-11-15T22:26:44.574Z,2.40
2017-11-15T22:29:12.730Z,2.40
2017-11-15T22:31:41.031Z,2.40
2017-11-15T22:34:09.918Z,2.50
2017-11-15T22:36:38.102Z,2.40
2017-11-15T22:39:06.243Z,2.40
2017-11-15T22:41:34.543Z,2.40
2017-11-15T22:44:02.682Z,2.40
2017-11-15T22:46:30.830Z,2.40
2017-11-15T22:48:59.759Z,2.30
2017-11-15T22:51:27.906Z,2.30
2017-11-15T22:53:56.833Z,2.30
2017-11-15T22:56:25.003Z,2.30
2017-11-15T22:58:53.138Z,2.30
2017-11-15T23:01:22.183Z,2.30
2017-11-15T23:03:50.326Z,2.30
2017-11-15T23:06:18.515Z,2.30
2017-11-15T23:08:46.687Z,2.40
2017-11-15T23:11:14.836Z,2.40
2017-11-15T23:13:43.777Z,2.50
2017-11-15T23:16:11.917Z,2.40
2017-11-15T23:18:40.201Z,2.50
2017-11-15T23:21:08.350Z,2.50
2017-11-15T23:23:36.486Z,2.60
2017-11-15T23:26:04.639Z,2.50
2017-11-15T23:28:32.789Z,2.50
2017-11-15T23:31:00.947Z,2.60
2017-11-15T23:33:29.083Z,2.60
2017-11-15T23:35:57.230Z,2.50
2017-11-15T23:38:26.269Z,2.50
2017-11-15T23:40:55.169Z,2.50
2017-11-15T23:43:24.092Z,2.50
2017-11-15T23:45:52.246Z,2.50
2017-11-15T23:48:20.514Z,2.50
2017-11-15T23:50:48.649Z,2.50
2017-11-15T23:53:16.778Z,2.40
2017-11-15T23:55:44.937Z,2.40
2017-11-15T23:58:13.085Z,2.40
